createdAt,value
2022-11-28T00:01:57.939Z,55.13
2022-11-28T00:05:00.119Z,55.11
2022-11-28T00:08:02.560Z,55.16
2022-11-28T00:11:06.242Z,55.13
2022-11-28T00:14:08.992Z,55.13
2022-11-28T00:17:11.053Z,55.18
2022-11-28T00:20:13.302Z,55.18
2022-11-28T00:23:15.325Z,55.20
2022-11-28T00:26:32.036Z,55.22
2022-11-28T00:29:34.047Z,55.16
2022-11-28T00:32:36.201Z,55.17
2022-11-28T00:35:38.327Z,55.23
2022-11-28T00:38:41.533Z,55.22
2022-11-28T00:41:44.504Z,55.25
2022-11-28T00:44:46.796Z,55.21
2022-11-28T00:47:49.168Z,55.29
2022-11-28T00:50:51.556Z,55.27
2022-11-28T00:53:55.382Z,55.34
2022-11-28T00:56:57.440Z,55.36
2022-11-28T00:59:59.428Z,55.33
2022-11-28T01:03:01.421Z,55.36
2022-11-28T01:06:04.842Z,55.41
2022-11-28T01:09:10.285Z,55.40
2022-11-28T01:12:12.317Z,55.42
2022-11-28T01:15:14.465Z,55.43
2022-11-28T01:18:16.526Z,55.44
2022-11-28T01:21:18.914Z,55.46
2022-11-28T01:24:21.002Z,55.47
2022-11-28T01:27:23.114Z,55.51
2022-11-28T01:30:25.216Z,55.51
2022-11-28T01:33:27.254Z,55.52
2022-11-28T01:36:30.354Z,55.55
2022-11-28T01:39:32.367Z,55.52
2022-11-28T01:42:34.726Z,55.58
2022-11-28T01:45:36.763Z,55.55
2022-11-28T01:48:42.158Z,55.60
2022-11-28T01:51:51.038Z,55.55
2022-11-28T01:54:58.990Z,55.56
2022-11-28T01:58:01.370Z,55.60
2022-11-28T02:01:05.120Z,55.58
2022-11-28T02:04:07.207Z,55.57
2022-11-28T02:07:09.729Z,55.58
2022-11-28T02:10:18.065Z,55.57
2022-11-28T02:13:58.320Z,55.55
2022-11-28T02:17:25.837Z,55.63
2022-11-28T02:20:48.356Z,55.64
2022-11-28T02:24:14.684Z,55.62
2022-11-28T02:27:29.255Z,55.66
2022-11-28T02:30:51.285Z,55.64
2022-11-28T02:33:56.996Z,55.68
2022-11-28T02:37:14.577Z,55.67
2022-11-28T02:40:25.945Z,55.67
2022-11-28T02:43:33.857Z,55.70
2022-11-28T02:46:54.871Z,55.71
2022-11-28T02:50:02.920Z,55.72
2022-11-28T02:53:12.699Z,55.69
2022-11-28T02:56:14.947Z,55.72
2022-11-28T02:59:39.257Z,55.74
2022-11-28T03:02:42.674Z,55.78
2022-11-28T03:06:16.066Z,55.76
2022-11-28T03:09:39.543Z,55.74
2022-11-28T03:13:04.685Z,55.80
2022-11-28T03:16:38.630Z,55.84
2022-11-28T03:19:47.921Z,55.81
2022-11-28T03:23:13.091Z,55.79
2022-11-28T03:26:38.395Z,55.84
2022-11-28T03:29:46.302Z,55.81
2022-11-28T03:32:51.350Z,55.82
2022-11-28T03:35:59.606Z,55.87
2022-11-28T03:39:17.521Z,55.88
2022-11-28T03:42:29.538Z,55.84
2022-11-28T03:45:41.768Z,55.85
2022-11-28T03:48:48.558Z,55.89
2022-11-28T03:52:00.482Z,55.88
2022-11-28T03:55:11.618Z,55.81
2022-11-28T03:58:47.646Z,55.84
2022-11-28T04:02:34.769Z,55.85
2022-11-28T04:05:50.649Z,55.86
2022-11-28T04:09:03.795Z,55.86
2022-11-28T04:12:19.999Z,55.85
2022-11-28T04:15:33.102Z,55.86
2022-11-28T04:19:02.157Z,55.94
2022-11-28T04:22:19.442Z,55.88
2022-11-28T04:25:23.718Z,55.97
2022-11-28T04:28:29.631Z,55.95
2022-11-28T04:31:33.435Z,55.99
2022-11-28T04:34:37.721Z,55.82
2022-11-28T04:37:44.709Z,55.16
2022-11-28T04:41:12.538Z,54.75
2022-11-28T04:44:22.228Z,54.49
2022-11-28T04:47:25.243Z,54.37
2022-11-28T04:50:53.086Z,54.17
2022-11-28T04:54:21.110Z,54.09
2022-11-28T04:57:35.856Z,54.20
2022-11-28T05:00:38.794Z,54.02
2022-11-28T05:03:42.770Z,53.80
2022-11-28T05:06:45.300Z,53.76
2022-11-28T05:09:47.622Z,53.67
2022-11-28T05:12:49.638Z,53.67
2022-11-28T05:15:51.996Z,53.75
2022-11-28T05:18:54.144Z,53.76
2022-11-28T05:21:56.190Z,53.62
2022-11-28T05:24:58.207Z,53.42
2022-11-28T05:28:00.352Z,53.36
2022-11-28T05:31:03.315Z,53.35
2022-11-28T05:34:05.476Z,53.49
2022-11-28T05:37:07.539Z,53.39
2022-11-28T05:40:09.798Z,53.29
2022-11-28T05:43:12.170Z,53.05
2022-11-28T05:46:14.237Z,52.98
2022-11-28T05:49:16.371Z,53.04
2022-11-28T05:52:18.498Z,53.15
2022-11-28T05:55:20.490Z,53.22
2022-11-28T05:58:22.536Z,53.12
2022-11-28T06:01:27.629Z,52.90
2022-11-28T06:04:29.782Z,52.77
2022-11-28T06:07:32.020Z,52.82
2022-11-28T06:10:34.858Z,52.88
2022-11-28T06:13:36.987Z,52.91
2022-11-28T06:16:40.914Z,52.80
2022-11-28T06:19:43.246Z,52.59
2022-11-28T06:22:47.391Z,52.46
2022-11-28T06:25:49.458Z,52.55
2022-11-28T06:28:51.581Z,52.62
2022-11-28T06:31:53.718Z,52.71
2022-11-28T06:34:55.815Z,52.53
2022-11-28T06:37:57.897Z,52.32
2022-11-28T06:41:02.152Z,52.28
2022-11-28T06:44:04.265Z,52.38
2022-11-28T06:47:06.253Z,52.54
2022-11-28T06:50:09.879Z,52.44
2022-11-28T06:53:11.906Z,52.14
2022-11-28T06:56:17.093Z,52.01
2022-11-28T06:59:19.314Z,51.96
2022-11-28T07:02:22.731Z,52.01
2022-11-28T07:05:27.767Z,52.26
2022-11-28T07:08:31.351Z,52.20
2022-11-28T07:11:33.377Z,52.04
2022-11-28T07:14:35.364Z,51.82
2022-11-28T07:17:37.861Z,51.78
2022-11-28T07:20:39.894Z,51.82
2022-11-28T07:23:43.304Z,51.90
2022-11-28T07:26:45.985Z,52.00
2022-11-28T07:29:47.989Z,51.82
2022-11-28T07:32:50.015Z,51.57
2022-11-28T07:35:52.057Z,51.50
2022-11-28T07:38:56.408Z,51.56
2022-11-28T07:41:58.566Z,51.73
2022-11-28T07:45:00.558Z,51.78
2022-11-28T07:48:02.579Z,51.66
2022-11-28T07:51:09.587Z,51.42
2022-11-28T07:54:11.590Z,51.24
2022-11-28T07:57:13.698Z,51.28
2022-11-28T08:00:16.488Z,51.38
2022-11-28T08:03:18.515Z,51.44
2022-11-28T08:06:23.266Z,51.17
2022-11-28T08:09:25.319Z,50.89
2022-11-28T08:12:27.353Z,50.85
2022-11-28T08:15:31.619Z,50.98
2022-11-28T08:18:35.081Z,51.06
2022-11-28T08:21:37.514Z,50.86
2022-11-28T08:24:39.609Z,50.69
2022-11-28T08:27:41.617Z,50.47
2022-11-28T08:30:43.704Z,50.62
2022-11-28T08:33:47.734Z,51.06
2022-11-28T08:36:50.147Z,51.28
2022-11-28T08:39:52.136Z,51.43
2022-11-28T08:42:54.147Z,51.53
2022-11-28T08:45:56.463Z,51.45
2022-11-28T08:49:04.286Z,51.34
2022-11-28T08:52:06.778Z,51.05
2022-11-28T08:55:09.241Z,50.63
2022-11-28T08:58:12.228Z,50.39
2022-11-28T09:01:23.267Z,50.42
2022-11-28T09:04:25.438Z,50.71
2022-11-28T09:07:27.556Z,50.43
2022-11-28T09:10:29.615Z,50.40
2022-11-28T09:13:31.679Z,50.30
2022-11-28T09:16:33.765Z,49.77
2022-11-28T09:19:35.786Z,49.66
2022-11-28T09:22:37.994Z,49.89
2022-11-28T09:25:40.382Z,50.66
2022-11-28T09:28:42.863Z,50.43
2022-11-28T09:31:47.504Z,50.40
2022-11-28T09:34:51.103Z,50.46
2022-11-28T09:37:53.231Z,50.59
2022-11-28T09:40:55.336Z,50.64
2022-11-28T09:44:08.077Z,50.63
2022-11-28T09:47:44.697Z,50.70
2022-11-28T09:50:47.981Z,50.72
2022-11-28T09:54:13.240Z,50.89
2022-11-28T09:57:49.217Z,50.68
2022-11-28T10:01:21.601Z,50.72
2022-11-28T10:04:38.850Z,50.62
2022-11-28T10:08:00.843Z,50.65
2022-11-28T10:11:04.967Z,50.77
2022-11-28T10:14:35.085Z,50.92
2022-11-28T10:17:44.198Z,51.37
2022-11-28T10:20:48.917Z,51.74
2022-11-28T10:23:56.566Z,51.84
2022-11-28T10:27:01.625Z,51.88
2022-11-28T10:30:09.375Z,52.22
2022-11-28T10:33:24.237Z,52.27
2022-11-28T10:36:33.812Z,52.33
2022-11-28T10:39:39.712Z,52.30
2022-11-28T10:42:49.492Z,52.32
2022-11-28T10:46:18.937Z,52.29
2022-11-28T10:49:47.951Z,52.44
2022-11-28T10:53:04.184Z,53.13
2022-11-28T10:56:17.713Z,53.40
2022-11-28T10:59:30.214Z,53.56
2022-11-28T11:02:54.681Z,53.63
2022-11-28T11:05:56.713Z,53.46
2022-11-28T11:08:58.723Z,53.42
2022-11-28T11:12:04.419Z,53.44
2022-11-28T11:15:36.291Z,53.58
2022-11-28T11:18:52.032Z,53.88
2022-11-28T11:22:12.674Z,53.88
2022-11-28T11:25:17.352Z,53.43
2022-11-28T11:28:33.427Z,53.56
2022-11-28T11:31:44.605Z,53.46
2022-11-28T11:34:47.079Z,54.02
2022-11-28T11:37:49.207Z,54.22
2022-11-28T11:40:52.261Z,54.19
2022-11-28T11:43:56.709Z,54.20
2022-11-28T11:47:08.390Z,54.32
2022-11-28T11:50:18.873Z,54.52
2022-11-28T11:53:20.946Z,54.60
2022-11-28T11:56:22.979Z,54.35
2022-11-28T11:59:39.398Z,54.49
2022-11-28T12:03:00.650Z,54.59
2022-11-28T12:06:30.613Z,54.62
2022-11-28T12:09:47.983Z,55.10
2022-11-28T12:12:50.614Z,55.21
2022-11-28T12:16:08.440Z,54.94
2022-11-28T12:19:17.981Z,55.01
2022-11-28T12:22:38.134Z,54.63
2022-11-28T12:26:04.826Z,54.88
2022-11-28T12:29:37.377Z,55.16
2022-11-28T12:32:55.064Z,55.40
2022-11-28T12:36:22.226Z,55.74
2022-11-28T12:39:43.189Z,55.88
2022-11-28T12:43:18.644Z,56.20
2022-11-28T12:46:20.812Z,56.35
2022-11-28T12:49:39.739Z,56.56
2022-11-28T12:52:53.863Z,57.06
2022-11-28T12:56:33.713Z,57.51
2022-11-28T12:59:54.803Z,57.68
2022-11-28T13:03:26.572Z,57.95
2022-11-28T13:06:36.403Z,58.26
2022-11-28T13:09:46.843Z,58.11
2022-11-28T13:13:09.896Z,57.77
2022-11-28T13:16:27.577Z,58.25
2022-11-28T13:19:48.300Z,57.66
2022-11-28T13:23:05.703Z,58.01
2022-11-28T13:26:41.477Z,57.60
2022-11-28T13:30:02.627Z,57.37
2022-11-28T13:33:22.572Z,58.06
2022-11-28T13:40:49.484Z,57.99
2022-11-28T13:44:33.084Z,58.13
2022-11-28T13:47:37.496Z,57.43
2022-11-28T13:50:41.520Z,58.46
2022-11-28T13:53:46.904Z,58.48
2022-11-28T13:57:19.343Z,58.45
2022-11-28T14:00:25.053Z,57.96
2022-11-28T14:03:27.801Z,58.45
2022-11-28T14:06:52.262Z,58.33
2022-11-28T14:10:15.018Z,58.06
2022-11-28T14:13:35.955Z,57.71
2022-11-28T14:17:05.028Z,57.55
2022-11-28T14:20:45.836Z,57.62
2022-11-28T14:23:56.559Z,57.58
2022-11-28T14:27:02.454Z,57.46
2022-11-28T14:30:05.372Z,57.33
2022-11-28T14:33:44.590Z,57.36
2022-11-28T14:36:47.002Z,57.33
2022-11-28T14:39:51.083Z,57.21
2022-11-28T14:43:22.493Z,57.06
2022-11-28T14:46:32.542Z,56.96
2022-11-28T14:49:35.310Z,57.01
2022-11-28T14:52:40.248Z,57.00
2022-11-28T14:55:43.271Z,56.99
2022-11-28T14:58:52.273Z,56.90
2022-11-28T15:02:12.727Z,56.76
2022-11-28T15:05:46.636Z,56.71
2022-11-28T15:09:17.831Z,56.44
2022-11-28T15:12:34.478Z,56.48
2022-11-28T15:15:37.419Z,56.41
2022-11-28T15:18:49.352Z,56.48
2022-11-28T15:21:55.130Z,56.51
2022-11-28T15:24:57.746Z,56.32
2022-11-28T15:28:14.071Z,56.39
2022-11-28T15:31:23.296Z,56.31
2022-11-28T15:34:34.631Z,56.27
2022-11-28T15:37:36.888Z,56.32
2022-11-28T15:40:38.977Z,56.32
2022-11-28T15:43:45.500Z,56.34
2022-11-28T15:46:47.605Z,56.31
2022-11-28T15:50:05.497Z,56.29
2022-11-28T15:53:20.859Z,56.37
2022-11-28T15:56:23.379Z,56.46
2022-11-28T15:59:25.503Z,56.47
2022-11-28T16:02:34.963Z,56.70
2022-11-28T16:05:38.805Z,56.65
2022-11-28T16:08:51.497Z,56.70
2022-11-28T16:11:54.867Z,56.29
2022-11-28T16:15:01.694Z,56.09
2022-11-28T16:18:04.115Z,56.15
2022-11-28T16:21:13.172Z,56.19
2022-11-28T16:24:24.960Z,55.91
2022-11-28T16:27:39.245Z,55.98
2022-11-28T16:30:48.511Z,56.23
2022-11-28T16:33:51.997Z,56.41
2022-11-28T16:36:54.525Z,56.42
2022-11-28T16:40:07.454Z,56.45
2022-11-28T16:43:21.998Z,56.28
2022-11-28T16:46:27.091Z,56.26
2022-11-28T16:49:58.275Z,56.41
2022-11-28T16:53:00.580Z,56.07
2022-11-28T16:56:02.638Z,55.79
2022-11-28T16:59:18.126Z,55.74
2022-11-28T17:02:24.978Z,55.65
2022-11-28T17:05:27.219Z,55.81
2022-11-28T17:08:30.579Z,55.66
2022-11-28T17:11:36.135Z,55.81
2022-11-28T17:14:39.089Z,55.95
2022-11-28T17:17:41.123Z,56.05
2022-11-28T17:20:43.148Z,56.11
2022-11-28T17:23:45.322Z,56.32
2022-11-28T17:26:48.144Z,56.15
2022-11-28T17:29:50.236Z,56.19
2022-11-28T17:32:52.349Z,56.13
2022-11-28T17:35:56.000Z,56.17
2022-11-28T17:39:03.738Z,56.20
2022-11-28T17:42:07.203Z,56.29
2022-11-28T17:45:15.000Z,56.19
2022-11-28T17:48:17.940Z,56.13
2022-11-28T17:51:20.203Z,56.10
2022-11-28T17:54:24.203Z,56.10
2022-11-28T17:57:26.476Z,55.97
2022-11-28T18:00:29.296Z,55.92
2022-11-28T18:03:31.326Z,55.84
2022-11-28T18:06:33.809Z,55.81
2022-11-28T18:09:35.876Z,55.65
2022-11-28T18:12:39.006Z,55.52
2022-11-28T18:15:42.526Z,55.61
2022-11-28T18:18:44.974Z,55.59
2022-11-28T18:21:47.174Z,55.58
2022-11-28T18:24:49.215Z,55.59
2022-11-28T18:27:51.233Z,55.67
2022-11-28T18:30:53.269Z,55.66
2022-11-28T18:34:01.421Z,55.62
2022-11-28T18:37:03.786Z,55.62
2022-11-28T18:40:09.284Z,55.62
2022-11-28T18:43:11.707Z,55.56
2022-11-28T18:46:16.328Z,55.59
2022-11-28T18:49:19.711Z,55.55
2022-11-28T18:52:21.865Z,55.57
2022-11-28T18:55:23.982Z,55.59
2022-11-28T18:58:25.963Z,55.74
2022-11-28T19:01:30.834Z,55.78
2022-11-28T19:04:33.185Z,55.85
2022-11-28T19:07:35.223Z,55.83
2022-11-28T19:10:41.060Z,55.81
2022-11-28T19:13:44.661Z,55.87
2022-11-28T19:16:49.244Z,55.81
2022-11-28T19:19:51.746Z,55.87
2022-11-28T19:22:53.740Z,55.87
2022-11-28T19:25:55.758Z,55.75
2022-11-28T19:28:59.503Z,55.60
2022-11-28T19:32:01.567Z,55.80
2022-11-28T19:35:03.999Z,55.74
2022-11-28T19:38:06.050Z,55.90
2022-11-28T19:41:13.798Z,55.98
2022-11-28T19:44:15.836Z,56.05
2022-11-28T19:47:17.925Z,56.04
2022-11-28T19:50:19.940Z,56.10
2022-11-28T19:53:22.903Z,56.13
2022-11-28T19:56:25.295Z,56.17
2022-11-28T19:59:27.550Z,56.13
2022-11-28T20:02:29.680Z,56.13
2022-11-28T20:05:32.978Z,56.12
2022-11-28T20:08:35.150Z,56.13
2022-11-28T20:11:37.508Z,56.13
2022-11-28T20:14:39.504Z,56.10
2022-11-28T20:17:41.741Z,56.13
2022-11-28T20:20:43.804Z,56.09
2022-11-28T20:23:48.165Z,56.13
2022-11-28T20:26:50.997Z,56.07
2022-11-28T20:29:52.992Z,56.13
2022-11-28T20:32:55.326Z,56.08
2022-11-28T20:36:13.832Z,56.10
2022-11-28T20:39:15.846Z,56.13
2022-11-28T20:42:17.970Z,56.13
2022-11-28T20:45:19.979Z,56.13
2022-11-28T20:48:22.269Z,56.10
2022-11-28T20:51:25.778Z,56.09
2022-11-28T20:54:27.830Z,56.14
2022-11-28T20:57:29.875Z,56.15
2022-11-28T21:00:31.882Z,56.17
2022-11-28T21:03:34.361Z,56.17
2022-11-28T21:06:36.438Z,56.23
2022-11-28T21:09:38.477Z,56.20
2022-11-28T21:12:40.481Z,56.21
2022-11-28T21:15:45.521Z,56.19
2022-11-28T21:18:49.125Z,56.19
2022-11-28T21:21:51.232Z,56.18
2022-11-28T21:24:53.249Z,56.18
2022-11-28T21:27:55.271Z,56.18
2022-11-28T21:30:57.294Z,56.16
2022-11-28T21:33:59.867Z,56.20
2022-11-28T21:37:02.051Z,56.22
2022-11-28T21:40:04.658Z,56.21
2022-11-28T21:43:06.690Z,56.22
2022-11-28T21:46:08.723Z,56.16
2022-11-28T21:49:10.929Z,56.08
2022-11-28T21:52:13.445Z,56.10
2022-11-28T21:55:15.482Z,56.15
2022-11-28T21:58:21.161Z,56.14
2022-11-28T22:01:25.992Z,56.22
2022-11-28T22:04:28.050Z,56.23
2022-11-28T22:07:30.150Z,56.24
2022-11-28T22:10:32.214Z,56.32
2022-11-28T22:13:35.509Z,56.38
2022-11-28T22:16:37.533Z,56.36
2022-11-28T22:19:39.507Z,56.36
2022-11-28T22:22:41.604Z,56.39
2022-11-28T22:25:51.619Z,56.41
2022-11-28T22:28:54.200Z,56.41
2022-11-28T22:31:56.324Z,56.40
2022-11-28T22:34:58.367Z,56.40
2022-11-28T22:38:00.357Z,56.45
2022-11-28T22:41:10.979Z,56.42
2022-11-28T22:44:12.965Z,56.44
2022-11-28T22:47:15.126Z,56.48
2022-11-28T22:50:17.241Z,56.48
2022-11-28T22:53:19.476Z,56.46
2022-11-28T22:56:21.541Z,56.50
2022-11-28T22:59:23.588Z,56.42
2022-11-28T23:02:25.733Z,56.42
2022-11-28T23:05:27.800Z,56.48
2022-11-28T23:08:30.290Z,56.45
2022-11-28T23:11:34.508Z,56.46
2022-11-28T23:14:36.677Z,56.47
2022-11-28T23:17:38.739Z,56.48
2022-11-28T23:20:40.785Z,56.47
2022-11-28T23:23:46.178Z,56.46
2022-11-28T23:26:49.318Z,56.48
2022-11-28T23:29:51.318Z,56.45
2022-11-28T23:32:53.305Z,56.52
2022-11-28T23:35:55.295Z,56.53
2022-11-28T23:39:03.143Z,56.48
2022-11-28T23:42:05.166Z,56.51
2022-11-28T23:45:07.990Z,56.51
2022-11-28T23:48:10.005Z,56.55
2022-11-28T23:51:14.034Z,56.53
2022-11-28T23:54:16.537Z,56.55
2022-11-28T23:57:18.693Z,56.53
